Time;durP1;ratioP1;P1;durP2;ratioP2;P2;SDS_P1;SDS_P2;PMS_P1;PMS_P2;Temp;Humidity;BMP_temperature;BMP_pressure;BME280_temperature;BME280_humidity;BME280_pressure;Samples;Min_cycle;Max_cycle;Signal;HPM_P1;HPM_P2
2023/11/08 00:01:39;;;;;;;9.30;4.23;;;;;;;;;;5135515;27;20726;-81
2023/11/08 00:04:06;;;;;;;10.90;5.70;;;;;;;;;;5135409;27;20814;-80
2023/11/08 00:06:34;;;;;;;16.60;4.97;;;;;;;;;;5134766;27;20255;-81
2023/11/08 00:09:00;;;;;;;12.37;4.67;;;;;;;;;;5135537;27;20234;-81
2023/11/08 00:11:27;;;;;;;9.50;4.37;;;;;;;;;;5134986;27;20668;-81
2023/11/08 00:13:55;;;;;;;6.27;5.50;;;;;;;;;;5135417;27;20202;-81
2023/11/08 00:16:22;;;;;;;10.73;5.67;;;;;;;;;;5134905;27;20293;-81
2023/11/08 00:18:50;;;;;;;9.20;4.90;;;;;;;;;;5135309;27;20202;-82
2023/11/08 00:21:17;;;;;;;7.17;4.30;;;;;;;;;;5135492;27;20218;-82
2023/11/08 00:23:44;;;;;;;9.77;4.67;;;;;;;;;;5134870;27;20285;-81
2023/11/08 00:26:10;;;;;;;11.60;5.40;;;;;;;;;;5134810;27;20207;-81
2023/11/08 00:28:39;;;;;;;10.33;4.90;;;;;;;;;;5134693;27;20206;-81
2023/11/08 00:31:07;;;;;;;8.73;5.03;;;;;;;;;;5134810;27;20206;-82
2023/11/08 00:33:33;;;;;;;10.47;4.77;;;;;;;;;;5134731;27;20696;-81
2023/11/08 00:36:05;;;;;;;7.13;4.40;;;;;;;;;;5134258;27;20199;-81
2023/11/08 00:38:32;;;;;;;7.90;5.10;;;;;;;;;;5135012;27;20202;-81
2023/11/08 00:40:59;;;;;;;5.53;4.47;;;;;;;;;;5134405;27;20202;-81
2023/11/08 00:43:26;;;;;;;8.03;4.80;;;;;;;;;;5135175;27;20203;-81
2023/11/08 00:45:53;;;;;;;6.97;4.73;;;;;;;;;;5129889;27;20241;-81
2023/11/08 00:48:20;;;;;;;10.57;5.37;;;;;;;;;;5126197;27;20203;-81
2023/11/08 00:50:47;;;;;;;9.47;5.20;;;;;;;;;;5134173;27;20233;-81
2023/11/08 00:53:16;;;;;;;8.70;5.40;;;;;;;;;;5134848;27;20199;-81
2023/11/08 00:55:42;;;;;;;9.37;5.60;;;;;;;;;;5134480;27;20735;-81
2023/11/08 00:58:09;;;;;;;9.83;4.87;;;;;;;;;;5134082;27;20195;-81
2023/11/08 01:00:36;;;;;;;9.80;5.43;;;;;;;;;;5134385;27;20202;-80
2023/11/08 01:03:03;;;;;;;10.83;5.37;;;;;;;;;;5134435;27;20210;-81
2023/11/08 01:05:31;;;;;;;7.80;5.60;;;;;;;;;;5100161;28;20259;-80
2023/11/08 01:07:58;;;;;;;8.40;5.50;;;;;;;;;;5127907;27;20609;-81
2023/11/08 01:10:26;;;;;;;10.47;4.93;;;;;;;;;;5133607;27;20201;-81
2023/11/08 01:12:53;;;;;;;9.37;5.53;;;;;;;;;;5134397;27;20199;-81
2023/11/08 01:15:21;;;;;;;10.03;5.40;;;;;;;;;;5127162;27;20200;-81
2023/11/08 01:17:48;;;;;;;11.13;5.13;;;;;;;;;;5127711;27;20285;-82
2023/11/08 01:20:14;;;;;;;11.80;4.53;;;;;;;;;;5133991;27;20206;-81
2023/11/08 01:22:41;;;;;;;9.40;4.87;;;;;;;;;;5125296;27;20199;-82
2023/11/08 01:25:12;;;;;;;10.30;6.00;;;;;;;;;;5126115;27;20347;-81
2023/11/08 01:27:40;;;;;;;9.80;5.80;;;;;;;;;;5128420;27;20586;-81
2023/11/08 01:30:08;;;;;;;9.33;4.73;;;;;;;;;;5133339;27;20202;-81
2023/11/08 01:32:35;;;;;;;10.83;5.63;;;;;;;;;;5133797;27;20205;-81
2023/11/08 01:35:04;;;;;;;9.47;5.43;;;;;;;;;;5125079;27;20248;-81
2023/11/08 01:37:31;;;;;;;8.93;5.33;;;;;;;;;;5129069;27;20206;-81
2023/11/08 01:39:58;;;;;;;8.53;4.50;;;;;;;;;;5133756;27;20669;-81
2023/11/08 01:42:25;;;;;;;5.77;4.60;;;;;;;;;;5133089;27;20583;-81
2023/11/08 01:44:53;;;;;;;9.87;4.43;;;;;;;;;;5133453;27;20229;-82
2023/11/08 01:47:20;;;;;;;9.53;5.00;;;;;;;;;;5106364;27;20195;-82
2023/11/08 01:49:47;;;;;;;8.03;4.33;;;;;;;;;;5133210;27;20203;-81
2023/11/08 01:52:14;;;;;;;7.03;4.67;;;;;;;;;;5133332;27;20676;-82
2023/11/08 01:54:43;;;;;;;10.73;5.33;;;;;;;;;;5133334;27;20291;-81
2023/11/08 01:57:10;;;;;;;7.37;5.40;;;;;;;;;;5132928;27;20657;-81
2023/11/08 01:59:37;;;;;;;7.43;4.57;;;;;;;;;;5133564;27;20212;-82
2023/11/08 02:02:05;;;;;;;9.83;4.90;;;;;;;;;;5133038;27;20222;-81
2023/11/08 02:04:32;;;;;;;7.60;4.30;;;;;;;;;;5120405;27;20222;-81
2023/11/08 02:07:00;;;;;;;8.37;4.10;;;;;;;;;;5131215;27;20285;-82
2023/11/08 02:09:27;;;;;;;7.13;4.67;;;;;;;;;;5133031;27;20191;-82
2023/11/08 02:11:55;;;;;;;7.80;5.20;;;;;;;;;;5113598;27;20223;-82
2023/11/08 02:14:25;;;;;;;5.73;4.60;;;;;;;;;;5124437;27;20207;-81
2023/11/08 02:16:51;;;;;;;5.10;4.33;;;;;;;;;;5132981;27;20244;-82
2023/11/08 02:19:19;;;;;;;5.90;4.40;;;;;;;;;;5132873;27;20208;-81
2023/11/08 02:21:46;;;;;;;10.93;4.37;;;;;;;;;;5132497;27;20603;-82
2023/11/08 02:24:19;;;;;;;6.30;4.10;;;;;;;;;;5132424;27;20233;-82
2023/11/08 02:26:48;;;;;;;8.00;4.93;;;;;;;;;;5106572;27;20202;-82
2023/11/08 02:29:15;;;;;;;10.80;6.07;;;;;;;;;;5131606;27;20217;-81
2023/11/08 02:31:42;;;;;;;11.73;5.90;;;;;;;;;;5120328;27;20210;-82
2023/11/08 02:34:09;;;;;;;7.63;5.10;;;;;;;;;;5131856;27;20199;-83
2023/11/08 02:36:36;;;;;;;6.47;4.50;;;;;;;;;;5132991;27;20202;-83
2023/11/08 02:39:04;;;;;;;4.80;4.30;;;;;;;;;;5132169;27;20744;-83
2023/11/08 02:41:32;;;;;;;5.40;3.73;;;;;;;;;;5123942;27;20692;-82
2023/11/08 02:43:59;;;;;;;8.20;3.80;;;;;;;;;;5128385;27;20202;-83
2023/11/08 02:46:27;;;;;;;4.53;3.80;;;;;;;;;;5132374;27;20222;-83
2023/11/08 02:48:56;;;;;;;4.83;3.97;;;;;;;;;;5132643;27;20734;-83
2023/11/08 02:51:24;;;;;;;6.43;4.73;;;;;;;;;;5132832;27;20627;-84
2023/11/08 02:53:50;;;;;;;7.27;4.93;;;;;;;;;;5111646;27;20204;-82
2023/11/08 02:56:17;;;;;;;6.57;5.07;;;;;;;;;;5113255;27;20263;-82
2023/11/08 02:58:45;;;;;;;6.83;4.73;;;;;;;;;;5132200;27;20207;-82
2023/11/08 03:01:12;;;;;;;11.60;5.53;;;;;;;;;;5131952;27;20211;-83
2023/11/08 03:03:39;;;;;;;16.77;7.40;;;;;;;;;;5118469;27;20197;-83
2023/11/08 03:06:07;;;;;;;12.43;6.63;;;;;;;;;;5120220;27;20231;-83
2023/11/08 03:08:34;;;;;;;10.33;6.00;;;;;;;;;;5125712;27;20306;-83
2023/11/08 03:11:01;;;;;;;4.90;4.27;;;;;;;;;;5123119;27;20230;-83
2023/11/08 03:13:28;;;;;;;5.30;4.50;;;;;;;;;;5127308;27;20200;-82
2023/11/08 03:15:57;;;;;;;5.40;4.33;;;;;;;;;;5122027;27;20209;-84
2023/11/08 03:18:24;;;;;;;4.10;3.77;;;;;;;;;;5118404;27;20187;-83
2023/11/08 03:20:50;;;;;;;5.40;4.90;;;;;;;;;;5132306;27;20203;-83
2023/11/08 03:23:17;;;;;;;9.97;7.73;;;;;;;;;;5112827;28;20222;-83
2023/11/08 03:25:44;;;;;;;8.03;5.63;;;;;;;;;;5123941;27;20222;-83
2023/11/08 03:28:11;;;;;;;7.03;5.30;;;;;;;;;;5132027;27;20198;-83
2023/11/08 03:30:38;;;;;;;6.87;4.73;;;;;;;;;;5131885;27;20677;-83
2023/11/08 03:33:06;;;;;;;4.57;3.87;;;;;;;;;;5131834;27;20203;-83
2023/11/08 03:35:33;;;;;;;4.73;4.00;;;;;;;;;;5119000;28;20607;-83
2023/11/08 03:38:00;;;;;;;8.20;4.13;;;;;;;;;;5104641;28;20204;-83
2023/11/08 03:40:27;;;;;;;6.23;3.90;;;;;;;;;;5131396;28;20665;-83
2023/11/08 03:42:55;;;;;;;7.37;4.60;;;;;;;;;;5131850;28;20202;-82
2023/11/08 03:45:22;;;;;;;4.93;3.70;;;;;;;;;;5131081;27;20229;-83
2023/11/08 03:47:49;;;;;;;4.10;3.63;;;;;;;;;;5131694;27;20632;-83
2023/11/08 03:50:17;;;;;;;5.40;4.07;;;;;;;;;;5131603;28;20218;-83
2023/11/08 03:52:44;;;;;;;5.60;3.70;;;;;;;;;;5131761;28;20233;-83
2023/11/08 03:55:11;;;;;;;4.33;3.90;;;;;;;;;;5117812;28;20211;-83
2023/11/08 03:57:38;;;;;;;5.40;3.83;;;;;;;;;;5122875;28;20208;-83
2023/11/08 04:00:06;;;;;;;4.23;3.60;;;;;;;;;;5126833;28;20199;-83
2023/11/08 04:02:34;;;;;;;7.43;3.70;;;;;;;;;;5131762;28;20199;-83
2023/11/08 04:05:00;;;;;;;6.40;4.97;;;;;;;;;;5131003;28;20209;-84
2023/11/08 04:07:29;;;;;;;39.90;35.70;;;;;;;;;;5122966;28;20668;-83
2023/11/08 04:09:55;;;;;;;67.20;60.77;;;;;;;;;;5113014;28;20218;-84
2023/11/08 04:12:22;;;;;;;34.40;31.43;;;;;;;;;;5122596;28;20228;-83
2023/11/08 04:14:49;;;;;;;8.57;7.83;;;;;;;;;;5127223;28;20198;-83
2023/11/08 04:17:18;;;;;;;8.03;6.63;;;;;;;;;;5121984;28;20207;-82
2023/11/08 04:19:45;;;;;;;7.47;5.13;;;;;;;;;;5110820;28;20200;-83
2023/11/08 04:22:14;;;;;;;9.93;6.00;;;;;;;;;;5115366;28;20283;-82
2023/11/08 04:24:42;;;;;;;7.77;6.53;;;;;;;;;;5122222;28;20191;-83
2023/11/08 04:27:09;;;;;;;8.63;5.73;;;;;;;;;;5131899;27;20229;-83
2023/11/08 04:29:36;;;;;;;10.10;9.10;;;;;;;;;;5115427;27;20210;-83
2023/11/08 04:32:03;;;;;;;16.27;13.67;;;;;;;;;;5115859;27;20298;-83
2023/11/08 04:34:30;;;;;;;16.70;12.57;;;;;;;;;;5124721;27;20202;-84
2023/11/08 04:36:57;;;;;;;52.70;41.57;;;;;;;;;;5134800;27;20195;-84
2023/11/08 04:39:24;;;;;;;27.53;21.83;;;;;;;;;;5124616;27;20207;-83
2023/11/08 04:41:52;;;;;;;17.30;13.97;;;;;;;;;;5131685;27;20573;-82
2023/11/08 04:44:19;;;;;;;6.73;5.43;;;;;;;;;;5127294;27;20199;-84
2023/11/08 04:46:46;;;;;;;10.73;9.47;;;;;;;;;;5122811;27;20227;-84
2023/11/08 04:49:13;;;;;;;36.10;22.37;;;;;;;;;;5113657;28;20199;-84
2023/11/08 04:51:40;;;;;;;9.30;8.23;;;;;;;;;;5127221;27;20621;-83
2023/11/08 04:54:07;;;;;;;6.67;5.93;;;;;;;;;;5130415;27;20230;-84
2023/11/08 04:56:35;;;;;;;7.33;5.13;;;;;;;;;;5136218;27;20199;-82
2023/11/08 04:59:04;;;;;;;8.57;5.60;;;;;;;;;;5121841;27;20208;-84
2023/11/08 05:01:32;;;;;;;7.17;6.03;;;;;;;;;;5128359;27;20248;-84
2023/11/08 05:04:00;;;;;;;6.57;5.87;;;;;;;;;;5101608;28;20191;-84
2023/11/08 05:06:27;;;;;;;9.63;8.53;;;;;;;;;;5115180;27;20278;-84
2023/11/08 05:08:56;;;;;;;10.33;7.40;;;;;;;;;;5127828;27;20204;-84
2023/11/08 05:11:22;;;;;;;7.70;5.97;;;;;;;;;;5118147;27;20223;-83
2023/11/08 05:13:50;;;;;;;5.17;4.67;;;;;;;;;;5124720;27;20203;-83
2023/11/08 05:16:22;;;;;;;12.60;11.17;;;;;;;;;;5127844;27;20205;-83
2023/11/08 05:18:49;;;;;;;12.10;10.10;;;;;;;;;;5125864;27;20195;-83
2023/11/08 05:21:16;;;;;;;11.87;8.83;;;;;;;;;;5115189;27;20197;-83
2023/11/08 05:23:43;;;;;;;7.07;5.90;;;;;;;;;;5133637;27;20206;-80
2023/11/08 05:26:10;;;;;;;9.77;6.10;;;;;;;;;;5120789;27;20225;-79
2023/11/08 05:28:37;;;;;;;5.87;5.03;;;;;;;;;;5133669;27;20203;-80
2023/11/08 05:31:04;;;;;;;9.97;5.27;;;;;;;;;;5132004;27;20195;-80
2023/11/08 05:33:32;;;;;;;5.17;4.73;;;;;;;;;;5134275;27;20297;-81
2023/11/08 05:35:59;;;;;;;7.27;4.47;;;;;;;;;;5133631;27;20202;-80
2023/11/08 05:38:26;;;;;;;11.23;4.93;;;;;;;;;;5127097;27;20206;-80
2023/11/08 05:40:53;;;;;;;9.40;3.80;;;;;;;;;;5133051;27;20202;-81
2023/11/08 05:43:21;;;;;;;6.53;4.67;;;;;;;;;;5132192;27;20263;-80
2023/11/08 05:45:48;;;;;;;6.70;3.90;;;;;;;;;;5130658;27;20222;-80
2023/11/08 05:48:15;;;;;;;6.90;4.10;;;;;;;;;;5118791;27;20213;-80
2023/11/08 05:50:43;;;;;;;14.30;8.57;;;;;;;;;;5118943;27;20627;-80
2023/11/08 05:53:11;;;;;;;11.93;4.87;;;;;;;;;;5132602;27;20206;-80
2023/11/08 05:55:39;;;;;;;6.33;3.97;;;;;;;;;;5131529;27;20210;-80
2023/11/08 05:58:06;;;;;;;7.93;4.07;;;;;;;;;;5132654;27;20222;-80
2023/11/08 06:00:34;;;;;;;5.10;4.70;;;;;;;;;;5133090;27;20281;-80
2023/11/08 06:03:01;;;;;;;9.10;4.30;;;;;;;;;;5132658;27;20207;-81
2023/11/08 06:05:29;;;;;;;11.27;4.40;;;;;;;;;;5132416;27;20198;-80
2023/11/08 06:07:58;;;;;;;6.40;4.00;;;;;;;;;;5132268;27;20703;-80
2023/11/08 06:10:25;;;;;;;10.47;5.10;;;;;;;;;;5132547;27;20230;-80
2023/11/08 06:12:52;;;;;;;6.60;5.40;;;;;;;;;;5118891;27;20689;-80
2023/11/08 06:15:19;;;;;;;6.77;5.40;;;;;;;;;;5133054;27;20214;-80
2023/11/08 06:17:47;;;;;;;7.67;4.67;;;;;;;;;;5118636;27;20210;-80
2023/11/08 06:20:14;;;;;;;9.23;4.17;;;;;;;;;;5132778;27;20247;-80
2023/11/08 06:22:41;;;;;;;16.20;7.80;;;;;;;;;;5130447;27;20211;-80
2023/11/08 06:25:10;;;;;;;15.80;9.80;;;;;;;;;;5121348;27;20596;-80
2023/11/08 06:27:37;;;;;;;12.07;9.27;;;;;;;;;;5132526;27;20226;-80
2023/11/08 06:30:04;;;;;;;9.77;7.40;;;;;;;;;;5132484;27;20229;-81
2023/11/08 06:32:31;;;;;;;9.60;6.03;;;;;;;;;;5132554;27;20191;-80
2023/11/08 06:35:00;;;;;;;7.47;5.43;;;;;;;;;;5133084;27;20201;-80
2023/11/08 06:37:27;;;;;;;9.30;7.63;;;;;;;;;;5131738;27;20691;-80
2023/11/08 06:39:55;;;;;;;15.67;13.47;;;;;;;;;;5132563;27;20626;-80
2023/11/08 06:42:23;;;;;;;15.40;12.20;;;;;;;;;;5132233;27;20199;-80
2023/11/08 06:44:50;;;;;;;11.10;8.57;;;;;;;;;;5132141;27;20584;-80
2023/11/08 06:47:18;;;;;;;16.47;8.13;;;;;;;;;;5131958;27;20226;-80
2023/11/08 06:49:45;;;;;;;9.90;7.13;;;;;;;;;;5132058;27;20704;-80
2023/11/08 06:52:12;;;;;;;11.07;7.40;;;;;;;;;;5132008;27;20687;-80
2023/11/08 06:54:41;;;;;;;12.47;6.73;;;;;;;;;;5132129;27;20213;-80
2023/11/08 06:57:09;;;;;;;24.87;16.23;;;;;;;;;;5131477;27;20199;-80
2023/11/08 06:59:40;;;;;;;10.07;7.00;;;;;;;;;;5132519;27;20287;-80
2023/11/08 07:02:06;;;;;;;7.10;5.07;;;;;;;;;;5105288;27;20233;-80
2023/11/08 07:04:33;;;;;;;6.77;5.10;;;;;;;;;;5131909;27;20221;-82
2023/11/08 07:07:01;;;;;;;5.83;4.43;;;;;;;;;;5132476;27;20649;-80
2023/11/08 07:09:28;;;;;;;6.23;5.10;;;;;;;;;;5132105;27;20295;-80
2023/11/08 07:11:55;;;;;;;11.80;5.07;;;;;;;;;;5132567;27;20310;-80
2023/11/08 07:14:22;;;;;;;6.20;4.07;;;;;;;;;;5130039;27;20203;-80
2023/11/08 07:16:50;;;;;;;10.60;5.93;;;;;;;;;;5119466;27;20621;-80
2023/11/08 07:19:17;;;;;;;6.27;5.10;;;;;;;;;;5131611;27;20279;-80
2023/11/08 07:21:44;;;;;;;7.03;4.70;;;;;;;;;;5132279;27;20218;-80
2023/11/08 07:24:11;;;;;;;7.13;5.07;;;;;;;;;;5131547;27;20210;-80
2023/11/08 07:26:38;;;;;;;7.50;4.50;;;;;;;;;;5132156;27;20234;-80
2023/11/08 07:29:05;;;;;;;5.63;4.70;;;;;;;;;;5130960;27;20812;-81
2023/11/08 07:31:32;;;;;;;5.67;4.17;;;;;;;;;;5131929;27;20209;-80
2023/11/08 07:34:00;;;;;;;10.10;4.87;;;;;;;;;;5114161;27;20206;-80
2023/11/08 07:36:29;;;;;;;8.90;4.70;;;;;;;;;;5121776;28;20206;-80
2023/11/08 07:38:56;;;;;;;6.10;4.50;;;;;;;;;;5117482;28;20205;-80
2023/11/08 07:41:23;;;;;;;9.57;5.47;;;;;;;;;;5131676;28;20200;-80
2023/11/08 07:43:50;;;;;;;7.00;5.07;;;;;;;;;;5131112;28;20207;-80
2023/11/08 07:46:17;;;;;;;6.40;4.40;;;;;;;;;;5132087;27;20648;-81
2023/11/08 07:48:43;;;;;;;5.87;4.47;;;;;;;;;;5117155;28;20573;-80
2023/11/08 07:51:12;;;;;;;5.77;4.10;;;;;;;;;;5131877;28;20222;-80
2023/11/08 07:53:39;;;;;;;5.37;4.47;;;;;;;;;;5131122;28;20684;-80
2023/11/08 07:56:08;;;;;;;8.93;5.27;;;;;;;;;;5131272;28;20616;-81
2023/11/08 07:58:35;;;;;;;5.77;4.73;;;;;;;;;;5130884;28;20257;-80
2023/11/08 08:01:02;;;;;;;11.17;4.80;;;;;;;;;;5131336;27;20195;-80
2023/11/08 08:03:29;;;;;;;9.73;5.67;;;;;;;;;;5135332;27;20199;-80
2023/11/08 08:05:56;;;;;;;10.23;4.83;;;;;;;;;;5135624;27;21129;-80
2023/11/08 08:08:25;;;;;;;7.27;4.30;;;;;;;;;;5135540;27;20249;-79
2023/11/08 08:10:51;;;;;;;8.23;4.13;;;;;;;;;;5135178;27;20680;-80
2023/11/08 08:13:18;;;;;;;7.57;4.70;;;;;;;;;;5135098;27;20204;-80
2023/11/08 08:15:45;;;;;;;7.03;3.77;;;;;;;;;;5135682;27;20254;-80
2023/11/08 08:18:12;;;;;;;8.13;4.60;;;;;;;;;;5135055;27;20621;-80
2023/11/08 08:20:39;;;;;;;6.17;4.43;;;;;;;;;;5134787;27;20291;-80
2023/11/08 08:23:09;;;;;;;8.57;4.60;;;;;;;;;;5108418;27;20617;-80
2023/11/08 08:25:39;;;;;;;13.83;5.00;;;;;;;;;;5134618;27;20203;-80
2023/11/08 08:28:06;;;;;;;7.77;5.00;;;;;;;;;;5135747;27;20305;-79
2023/11/08 08:30:33;;;;;;;6.43;5.77;;;;;;;;;;5133570;27;20615;-80
2023/11/08 08:33:01;;;;;;;5.60;4.73;;;;;;;;;;5123021;27;20223;-80
2023/11/08 08:35:28;;;;;;;5.47;4.40;;;;;;;;;;5134279;27;20242;-80
2023/11/08 08:37:55;;;;;;;5.77;3.90;;;;;;;;;;5126581;27;20190;-80
2023/11/08 08:40:21;;;;;;;8.83;4.67;;;;;;;;;;5129957;27;20202;-80
2023/11/08 08:42:50;;;;;;;6.73;3.97;;;;;;;;;;5134513;27;20202;-80
2023/11/08 08:45:17;;;;;;;7.80;4.40;;;;;;;;;;5132082;27;20213;-80
2023/11/08 08:47:44;;;;;;;11.03;4.53;;;;;;;;;;5114126;28;20282;-80
2023/11/08 08:50:12;;;;;;;8.37;3.40;;;;;;;;;;5130404;27;20205;-80
2023/11/08 08:52:39;;;;;;;16.03;4.23;;;;;;;;;;5134861;27;20686;-80
2023/11/08 08:55:07;;;;;;;7.83;4.00;;;;;;;;;;5134574;27;20206;-80
2023/11/08 08:57:34;;;;;;;9.63;3.87;;;;;;;;;;5135109;27;20579;-79
2023/11/08 09:00:02;;;;;;;7.10;3.77;;;;;;;;;;5134160;27;20213;-80
2023/11/08 09:02:29;;;;;;;7.10;4.90;;;;;;;;;;5133951;27;20250;-80
2023/11/08 09:04:56;;;;;;;8.07;5.30;;;;;;;;;;5134460;27;20208;-79
2023/11/08 09:07:23;;;;;;;8.47;5.80;;;;;;;;;;5134354;27;20225;-80
2023/11/08 09:09:50;;;;;;;7.47;5.23;;;;;;;;;;5133965;27;20556;-80
2023/11/08 09:12:17;;;;;;;5.80;4.83;;;;;;;;;;5122169;27;20266;-80
2023/11/08 09:14:51;;;;;;;9.27;5.40;;;;;;;;;;5130952;27;20208;-80
2023/11/08 09:17:20;;;;;;;12.53;5.27;;;;;;;;;;5134395;27;20210;-80
2023/11/08 09:19:46;;;;;;;7.13;5.67;;;;;;;;;;5133834;27;20198;-80
2023/11/08 09:22:13;;;;;;;8.03;5.30;;;;;;;;;;5133979;27;20206;-80
2023/11/08 09:24:40;;;;;;;13.80;7.03;;;;;;;;;;5133781;27;20198;-80
2023/11/08 09:27:07;;;;;;;38.77;20.90;;;;;;;;;;5134416;27;20218;-80
2023/11/08 09:29:35;;;;;;;15.60;7.60;;;;;;;;;;5133714;27;20202;-80
2023/11/08 09:32:03;;;;;;;11.33;5.50;;;;;;;;;;5133267;27;20198;-80
2023/11/08 09:34:32;;;;;;;7.53;5.27;;;;;;;;;;5133898;27;20673;-80
2023/11/08 09:37:00;;;;;;;8.10;5.07;;;;;;;;;;5133577;27;20708;-80
2023/11/08 09:39:28;;;;;;;11.97;4.20;;;;;;;;;;5133439;27;20657;-80
2023/11/08 09:41:56;;;;;;;7.93;3.90;;;;;;;;;;5132878;27;20699;-80
2023/11/08 09:44:24;;;;;;;14.70;4.23;;;;;;;;;;5125462;27;20217;-80
2023/11/08 09:46:53;;;;;;;9.03;3.87;;;;;;;;;;5128333;27;20286;-80
2023/11/08 09:49:20;;;;;;;6.63;4.00;;;;;;;;;;5133488;27;20627;-80
2023/11/08 09:51:49;;;;;;;8.57;3.97;;;;;;;;;;5129618;27;20258;-80
2023/11/08 09:54:15;;;;;;;8.97;4.83;;;;;;;;;;5122229;27;20206;-80
2023/11/08 09:56:43;;;;;;;5.87;3.70;;;;;;;;;;5132854;27;20700;-80
2023/11/08 09:59:10;;;;;;;7.30;4.23;;;;;;;;;;5133977;27;20201;-79
2023/11/08 10:01:38;;;;;;;8.13;4.27;;;;;;;;;;5133340;27;20217;-80
2023/11/08 10:04:05;;;;;;;7.47;3.73;;;;;;;;;;5132667;27;20198;-80
2023/11/08 10:06:32;;;;;;;5.60;3.70;;;;;;;;;;5133049;27;20202;-80
2023/11/08 10:09:05;;;;;;;6.80;3.30;;;;;;;;;;5133103;27;20253;-80
2023/11/08 10:11:34;;;;;;;7.90;3.73;;;;;;;;;;5132879;27;20326;-79
2023/11/08 10:14:01;;;;;;;7.23;4.23;;;;;;;;;;5132877;27;20586;-80
2023/11/08 10:16:27;;;;;;;6.60;5.40;;;;;;;;;;5132879;27;20210;-79
2023/11/08 10:18:56;;;;;;;6.57;4.00;;;;;;;;;;5132783;27;20210;-79
2023/11/08 10:21:25;;;;;;;9.23;3.80;;;;;;;;;;5132601;27;20203;-80
2023/11/08 10:23:53;;;;;;;6.67;4.03;;;;;;;;;;5132146;27;20207;-79
2023/11/08 10:26:22;;;;;;;11.60;4.03;;;;;;;;;;5132566;27;20592;-79
2023/11/08 10:29:00;;;;;;;4.90;3.20;;;;;;;;;;5132773;27;20222;-80
2023/11/08 10:31:32;;;;;;;10.60;3.53;;;;;;;;;;5108640;27;20284;-79
2023/11/08 10:33:59;;;;;;;8.77;3.33;;;;;;;;;;5132716;27;20290;-80
2023/11/08 10:36:27;;;;;;;10.33;5.07;;;;;;;;;;5132663;27;20203;-79
2023/11/08 10:48:43;;;;;;;7.90;4.33;;;;;;;;;;5068140;28;20219;-80
2023/11/08 10:51:12;;;;;;;7.33;3.77;;;;;;;;;;5068712;28;20295;-80
2023/11/08 10:53:39;;;;;;;13.97;9.03;;;;;;;;;;5068491;28;20197;-80
2023/11/08 10:56:08;;;;;;;7.83;4.17;;;;;;;;;;5068886;28;20655;-80
2023/11/08 10:58:39;;;;;;;6.37;3.63;;;;;;;;;;5068518;28;20201;-80
2023/11/08 11:01:06;;;;;;;14.07;8.10;;;;;;;;;;5068630;28;20207;-80
2023/11/08 11:03:33;;;;;;;14.33;10.13;;;;;;;;;;5068455;28;20694;-79
2023/11/08 11:06:02;;;;;;;15.87;6.47;;;;;;;;;;5068767;28;20209;-79
2023/11/08 11:08:30;;;;;;;14.87;7.13;;;;;;;;;;5067854;28;20228;-80
2023/11/08 11:10:57;;;;;;;12.50;8.37;;;;;;;;;;5068775;28;20290;-79
2023/11/08 11:13:29;;;;;;;11.63;6.20;;;;;;;;;;5068905;28;20201;-79
2023/11/08 11:16:05;;;;;;;11.17;8.60;;;;;;;;;;5068398;28;20207;-80
2023/11/08 11:18:34;;;;;;;11.40;9.00;;;;;;;;;;5068925;28;20204;-79
2023/11/08 11:21:13;;;;;;;13.77;9.30;;;;;;;;;;5068006;28;20217;-79
2023/11/08 11:23:41;;;;;;;17.97;10.93;;;;;;;;;;5068821;28;20207;-80
2023/11/08 11:26:10;;;;;;;19.50;11.07;;;;;;;;;;5068313;28;20215;-80
2023/11/08 11:28:51;;;;;;;14.20;10.40;;;;;;;;;;5068033;28;20270;-80
2023/11/08 11:31:37;;;;;;;16.77;11.93;;;;;;;;;;5043313;28;20285;-79
2023/11/08 11:34:42;;;;;;;15.23;11.93;;;;;;;;;;5130761;27;20195;-79
2023/11/08 11:37:12;;;;;;;18.80;12.57;;;;;;;;;;5130024;27;20699;-79
2023/11/08 11:39:40;;;;;;;23.80;14.93;;;;;;;;;;5131299;27;20588;-80
2023/11/08 11:42:08;;;;;;;11.87;9.67;;;;;;;;;;5131765;27;20233;-81
2023/11/08 11:44:42;;;;;;;14.13;11.10;;;;;;;;;;5131810;28;20198;-79
2023/11/08 11:47:11;;;;;;;13.90;11.33;;;;;;;;;;5131293;27;20194;-79
2023/11/08 11:49:39;;;;;;;21.13;13.33;;;;;;;;;;5131558;27;20567;-80
2023/11/08 11:52:07;;;;;;;13.10;9.90;;;;;;;;;;5131885;27;20312;-79
2023/11/08 11:54:34;;;;;;;18.67;9.77;;;;;;;;;;5131395;28;20289;-79
2023/11/08 11:57:04;;;;;;;12.60;8.03;;;;;;;;;;5131083;28;20206;-79
2023/11/08 11:59:31;;;;;;;15.37;7.67;;;;;;;;;;5131590;28;20203;-79
2023/11/08 12:01:59;;;;;;;14.47;9.27;;;;;;;;;;5131589;28;20267;-79
2023/11/08 12:04:27;;;;;;;13.83;8.70;;;;;;;;;;5131524;28;20236;-79
2023/11/08 12:06:55;;;;;;;5.80;3.53;;;;;;;;;;5131193;28;20203;-79
2023/11/08 12:09:23;;;;;;;8.03;2.93;;;;;;;;;;5131181;28;20286;-80
2023/11/08 12:11:50;;;;;;;9.57;3.57;;;;;;;;;;5131757;28;20225;-79
2023/11/08 12:14:21;;;;;;;7.13;3.20;;;;;;;;;;5130799;28;20205;-80
2023/11/08 12:16:48;;;;;;;9.50;3.43;;;;;;;;;;5131548;28;20199;-80
2023/11/08 12:19:16;;;;;;;6.97;2.73;;;;;;;;;;5130874;28;20209;-80
2023/11/08 12:21:45;;;;;;;6.87;3.57;;;;;;;;;;5131282;28;20248;-79
2023/11/08 12:24:12;;;;;;;10.90;3.47;;;;;;;;;;5130572;28;20223;-80
2023/11/08 12:26:39;;;;;;;7.63;3.70;;;;;;;;;;5131138;28;20202;-81
2023/11/08 12:29:07;;;;;;;8.70;4.80;;;;;;;;;;5130563;28;20226;-80
2023/11/08 12:31:35;;;;;;;18.27;5.87;;;;;;;;;;5131395;28;20237;-80
2023/11/08 12:34:05;;;;;;;14.37;5.97;;;;;;;;;;5131005;28;20207;-80
2023/11/08 12:36:34;;;;;;;15.10;4.83;;;;;;;;;;5131050;28;20683;-80
2023/11/08 12:39:03;;;;;;;9.30;3.73;;;;;;;;;;5131098;28;20203;-80
2023/11/08 12:41:41;;;;;;;8.03;3.27;;;;;;;;;;5131102;28;20195;-80
2023/11/08 12:44:08;;;;;;;9.23;3.17;;;;;;;;;;5130399;28;20198;-80
2023/11/08 12:46:46;;;;;;;31.50;4.93;;;;;;;;;;5131214;27;20205;-79
2023/11/08 12:49:16;;;;;;;10.07;3.43;;;;;;;;;;5110349;27;20271;-80
2023/11/08 12:51:44;;;;;;;10.90;3.57;;;;;;;;;;5134356;27;20203;-80
2023/11/08 12:54:14;;;;;;;12.57;3.73;;;;;;;;;;5134616;27;20230;-82
2023/11/08 12:56:41;;;;;;;6.87;3.13;;;;;;;;;;5131446;27;20669;-81
2023/11/08 12:59:13;;;;;;;10.90;4.70;;;;;;;;;;5123357;27;20212;-79
2023/11/08 13:01:40;;;;;;;6.30;3.20;;;;;;;;;;5131305;27;20196;-80
2023/11/08 13:04:07;;;;;;;7.27;3.30;;;;;;;;;;5124753;27;20233;-79
2023/11/08 13:06:34;;;;;;;7.97;3.33;;;;;;;;;;5133721;27;20194;-79
2023/11/08 13:09:05;;;;;;;10.37;3.47;;;;;;;;;;5133972;27;20670;-80
2023/11/08 13:11:33;;;;;;;11.03;3.07;;;;;;;;;;5134354;27;20215;-80
2023/11/08 13:14:05;;;;;;;6.83;2.73;;;;;;;;;;5133705;27;20203;-79
2023/11/08 13:16:32;;;;;;;7.07;2.30;;;;;;;;;;5134107;27;20294;-80
2023/11/08 13:19:00;;;;;;;6.63;2.60;;;;;;;;;;5134406;27;20207;-80
2023/11/08 13:21:27;;;;;;;11.40;3.20;;;;;;;;;;5133769;27;20206;-79
2023/11/08 13:23:54;;;;;;;11.50;3.27;;;;;;;;;;5134216;27;20634;-80
2023/11/08 13:26:21;;;;;;;5.43;2.83;;;;;;;;;;5119761;27;20223;-80
2023/11/08 13:28:50;;;;;;;4.93;2.33;;;;;;;;;;5134302;27;20226;-80
2023/11/08 13:31:17;;;;;;;5.47;2.67;;;;;;;;;;5106955;27;20210;-80
2023/11/08 13:33:46;;;;;;;10.77;2.50;;;;;;;;;;5133646;27;20618;-80
2023/11/08 13:36:14;;;;;;;6.87;2.07;;;;;;;;;;5133995;27;20199;-80
2023/11/08 13:38:42;;;;;;;14.73;4.10;;;;;;;;;;5133117;27;20221;-80
2023/11/08 13:41:09;;;;;;;9.90;2.43;;;;;;;;;;5133893;27;20198;-79
2023/11/08 13:43:36;;;;;;;9.00;2.87;;;;;;;;;;5133146;27;20201;-80
2023/11/08 13:46:05;;;;;;;8.27;2.93;;;;;;;;;;5134017;27;20194;-79
2023/11/08 13:48:33;;;;;;;6.53;2.00;;;;;;;;;;5133065;27;20723;-80
2023/11/08 13:51:06;;;;;;;8.90;3.50;;;;;;;;;;5133234;27;20198;-79
2023/11/08 13:53:33;;;;;;;7.30;2.50;;;;;;;;;;5133274;27;21049;-79
2023/11/08 13:56:02;;;;;;;9.53;2.97;;;;;;;;;;5133520;27;20195;-79
2023/11/08 13:58:29;;;;;;;6.87;2.40;;;;;;;;;;5129051;27;20215;-80
2023/11/08 14:00:57;;;;;;;8.23;2.57;;;;;;;;;;5122928;27;20672;-80
2023/11/08 14:03:25;;;;;;;12.40;3.30;;;;;;;;;;5133157;27;20254;-80
2023/11/08 14:05:52;;;;;;;6.33;3.43;;;;;;;;;;5132754;27;20199;-80
2023/11/08 14:08:19;;;;;;;7.97;3.00;;;;;;;;;;5132912;27;20612;-80
2023/11/08 14:10:45;;;;;;;6.40;3.17;;;;;;;;;;5132829;27;20649;-81
2023/11/08 14:13:12;;;;;;;7.37;2.90;;;;;;;;;;5133365;27;20198;-79
2023/11/08 14:15:39;;;;;;;5.53;2.83;;;;;;;;;;5132906;27;20251;-80
2023/11/08 14:18:07;;;;;;;7.60;3.83;;;;;;;;;;5133248;27;20217;-80
2023/11/08 14:20:35;;;;;;;7.60;3.20;;;;;;;;;;5132686;27;20247;-80
2023/11/08 14:23:02;;;;;;;8.23;3.37;;;;;;;;;;5132838;27;20203;-80
2023/11/08 14:25:29;;;;;;;18.03;13.13;;;;;;;;;;5132272;27;20233;-80
2023/11/08 14:27:56;;;;;;;20.47;15.67;;;;;;;;;;5132872;27;20199;-80
2023/11/08 14:30:23;;;;;;;19.73;14.40;;;;;;;;;;5118736;27;20774;-80
2023/11/08 14:32:50;;;;;;;14.67;8.03;;;;;;;;;;5132909;27;20585;-80
2023/11/08 14:35:17;;;;;;;12.50;6.60;;;;;;;;;;5132456;27;20195;-81
2023/11/08 14:37:45;;;;;;;6.03;3.70;;;;;;;;;;5133241;27;20195;-80
2023/11/08 14:40:12;;;;;;;6.50;3.70;;;;;;;;;;5132208;27;20203;-80
2023/11/08 14:42:39;;;;;;;9.47;3.60;;;;;;;;;;5132609;27;20743;-80
2023/11/08 14:45:07;;;;;;;24.27;13.40;;;;;;;;;;5132208;27;20206;-80
2023/11/08 14:47:34;;;;;;;18.53;11.33;;;;;;;;;;5132100;27;20198;-80
2023/11/08 14:50:01;;;;;;;22.10;14.23;;;;;;;;;;5130379;27;20652;-80
2023/11/08 14:52:28;;;;;;;12.47;8.03;;;;;;;;;;5120247;27;20210;-80